Aérodrome :
LOGIN :

S'inscrire | Disclaimer

   EN    FR    IT 

 










Légende :    VFR   VFR Marginal   IFR   IFR Intensif   IFR Très Intensif
Visi : 
Plafond : 
>= 8 km
>= 3000ft
5 à 8 km
1000 à 3000 ft
1500m à 5 km
500 à 1000 ft
800 à 1500m
200 à 500 ft
< 800m
< 200 ft
Symboles :   Orages  Brouillard  Fortes neiges  Fortes précipitations  Vent > 20 kt
SIGMETs :   Divers  Orages  Givrage  Turbulence  Onde Orograph.  Cendres Volcan.







- Altitude de l'aérodrome : 425 ft
- Code IATA : DTM


EDLW - Dortmund

DERNIER METAR :
  • 160420Z 17005KT 9999 SCT042 15/13 Q1018

METARs EXPIRÉS :
  • 160350Z 17007KT CAVOK 15/13 Q1018
  • 160320Z 16006KT CAVOK 15/13 Q1018
  • 160250Z AUTO 17005KT 9999 // FEW062/// OVC080/// 15/13 Q1018
  • 160220Z AUTO 16004KT 9999 // FEW052/// BKN061/// OVC078/// 15/13 Q1018
  • 160150Z AUTO 16006KT 9999 // FEW052/// BKN059/// BKN095/// 15/13 Q1018

TAF TAF EDLW
Valide du 16 à 04h jusqu'au 17 à 00h UTC


160350Z 1604/1624 18006KT CAVOK
BECMG 1605/1608 25008KT
BECMG 1618/1620 18003KT
Pas de NOTAMs connus pour ce terrain.



MET'MAP, la Météo Aéronautique d'un coup d'oeil ! - Copyright ORBIFLY Décembre 2007 - Disclaimer

ORBIFLY MET'MAP TEAM :

Programmation & Développement : Alexandra Zaïnal
Conception & Développement : Baudouin d'Aumeries
Co-Programmation & Développement : Marc-Olivier Méhu
Soutien technique & logistique : Manuel Goepfert

Contact : metmap@orbifly.com




SOURCES & CREDITS :

   NOAA